sensor_id;sensor_type;location;lat;lon;timestamp;P1;durP1;ratioP1;P2;durP2;ratioP2
65896;SDS011;52677;50.898;10.854;2023-06-14T00:00:11;7.15;;;4.80;;
65896;SDS011;52677;50.898;10.854;2023-06-14T00:02:12;6.43;;;4.65;;
65896;SDS011;52677;50.898;10.854;2023-06-14T00:04:12;7.15;;;4.55;;
65896;SDS011;52677;50.898;10.854;2023-06-14T00:06:13;6.80;;;4.85;;
65896;SDS011;52677;50.898;10.854;2023-06-14T00:08:14;7.10;;;4.65;;
65896;SDS011;52677;50.898;10.854;2023-06-14T00:10:15;7.32;;;4.70;;
65896;SDS011;52677;50.898;10.854;2023-06-14T00:12:15;5.35;;;4.60;;
65896;SDS011;52677;50.898;10.854;2023-06-14T00:14:16;7.35;;;4.50;;
65896;SDS011;52677;50.898;10.854;2023-06-14T00:16:17;6.93;;;4.53;;
65896;SDS011;52677;50.898;10.854;2023-06-14T00:18:17;6.00;;;4.53;;
65896;SDS011;52677;50.898;10.854;2023-06-14T00:20:17;5.75;;;4.68;;
65896;SDS011;52677;50.898;10.854;2023-06-14T00:22:18;8.05;;;4.50;;
65896;SDS011;52677;50.898;10.854;2023-06-14T00:24:20;9.18;;;4.95;;
65896;SDS011;52677;50.898;10.854;2023-06-14T00:26:20;5.00;;;4.22;;
65896;SDS011;52677;50.898;10.854;2023-06-14T00:28:20;10.50;;;5.55;;
65896;SDS011;52677;50.898;10.854;2023-06-14T00:30:21;6.68;;;4.85;;
65896;SDS011;52677;50.898;10.854;2023-06-14T00:32:21;4.95;;;4.45;;
65896;SDS011;52677;50.898;10.854;2023-06-14T00:34:25;6.78;;;4.82;;
65896;SDS011;52677;50.898;10.854;2023-06-14T00:36:25;5.55;;;4.32;;
65896;SDS011;52677;50.898;10.854;2023-06-14T00:38:26;6.32;;;4.38;;
65896;SDS011;52677;50.898;10.854;2023-06-14T00:40:26;7.53;;;4.95;;
65896;SDS011;52677;50.898;10.854;2023-06-14T00:42:27;7.85;;;5.03;;
65896;SDS011;52677;50.898;10.854;2023-06-14T00:44:28;7.30;;;4.63;;
65896;SDS011;52677;50.898;10.854;2023-06-14T00:46:28;6.85;;;5.25;;
65896;SDS011;52677;50.898;10.854;2023-06-14T00:48:28;12.38;;;6.35;;
65896;SDS011;52677;50.898;10.854;2023-06-14T00:50:30;9.60;;;4.78;;
65896;SDS011;52677;50.898;10.854;2023-06-14T00:52:33;6.20;;;4.47;;
65896;SDS011;52677;50.898;10.854;2023-06-14T00:54:34;5.43;;;4.65;;
65896;SDS011;52677;50.898;10.854;2023-06-14T00:56:37;8.55;;;4.82;;
65896;SDS011;52677;50.898;10.854;2023-06-14T00:58:39;6.28;;;5.05;;
65896;SDS011;52677;50.898;10.854;2023-06-14T01:00:40;6.25;;;4.80;;
65896;SDS011;52677;50.898;10.854;2023-06-14T01:02:40;5.07;;;4.53;;
65896;SDS011;52677;50.898;10.854;2023-06-14T01:04:41;10.32;;;5.43;;
65896;SDS011;52677;50.898;10.854;2023-06-14T01:09:13;11.73;;;4.75;;
65896;SDS011;52677;50.898;10.854;2023-06-14T01:11:26;8.82;;;5.13;;
65896;SDS011;52677;50.898;10.854;2023-06-14T01:13:35;7.20;;;4.95;;
65896;SDS011;52677;50.898;10.854;2023-06-14T01:15:38;5.75;;;4.88;;
65896;SDS011;52677;50.898;10.854;2023-06-14T01:17:39;8.60;;;5.32;;
65896;SDS011;52677;50.898;10.854;2023-06-14T01:19:43;7.90;;;5.28;;
65896;SDS011;52677;50.898;10.854;2023-06-14T01:21:45;7.78;;;5.00;;
65896;SDS011;52677;50.898;10.854;2023-06-14T01:23:45;7.88;;;4.50;;
65896;SDS011;52677;50.898;10.854;2023-06-14T01:25:52;5.43;;;4.57;;
65896;SDS011;52677;50.898;10.854;2023-06-14T01:27:53;8.52;;;5.32;;
65896;SDS011;52677;50.898;10.854;2023-06-14T01:29:58;6.07;;;4.47;;
65896;SDS011;52677;50.898;10.854;2023-06-14T01:32:00;8.73;;;5.20;;
65896;SDS011;52677;50.898;10.854;2023-06-14T01:34:01;8.60;;;4.85;;
65896;SDS011;52677;50.898;10.854;2023-06-14T01:36:01;7.00;;;4.78;;
65896;SDS011;52677;50.898;10.854;2023-06-14T01:38:04;4.88;;;4.35;;
65896;SDS011;52677;50.898;10.854;2023-06-14T01:40:06;6.43;;;4.47;;
65896;SDS011;52677;50.898;10.854;2023-06-14T01:42:08;10.38;;;4.97;;
65896;SDS011;52677;50.898;10.854;2023-06-14T01:44:11;5.15;;;4.65;;
65896;SDS011;52677;50.898;10.854;2023-06-14T01:46:14;5.53;;;4.32;;
65896;SDS011;52677;50.898;10.854;2023-06-14T01:48:15;5.22;;;4.38;;
65896;SDS011;52677;50.898;10.854;2023-06-14T01:50:15;5.32;;;4.40;;
65896;SDS011;52677;50.898;10.854;2023-06-14T01:52:16;8.55;;;4.65;;
65896;SDS011;52677;50.898;10.854;2023-06-14T01:54:18;6.13;;;4.75;;
65896;SDS011;52677;50.898;10.854;2023-06-14T01:56:18;5.07;;;4.45;;
65896;SDS011;52677;50.898;10.854;2023-06-14T01:58:19;5.95;;;4.22;;
65896;SDS011;52677;50.898;10.854;2023-06-14T02:00:19;7.85;;;4.53;;
65896;SDS011;52677;50.898;10.854;2023-06-14T02:02:21;6.78;;;4.70;;
65896;SDS011;52677;50.898;10.854;2023-06-14T02:04:21;5.28;;;4.47;;
65896;SDS011;52677;50.898;10.854;2023-06-14T02:06:21;5.63;;;4.50;;
65896;SDS011;52677;50.898;10.854;2023-06-14T02:08:22;6.40;;;4.50;;
65896;SDS011;52677;50.898;10.854;2023-06-14T02:10:23;7.20;;;4.95;;
65896;SDS011;52677;50.898;10.854;2023-06-14T02:12:23;9.60;;;4.97;;
65896;SDS011;52677;50.898;10.854;2023-06-14T02:14:23;7.57;;;4.85;;
65896;SDS011;52677;50.898;10.854;2023-06-14T02:16:24;5.05;;;4.50;;
65896;SDS011;52677;50.898;10.854;2023-06-14T02:18:24;6.80;;;5.15;;
65896;SDS011;52677;50.898;10.854;2023-06-14T02:20:25;7.72;;;4.35;;
65896;SDS011;52677;50.898;10.854;2023-06-14T02:22:25;6.40;;;4.38;;
65896;SDS011;52677;50.898;10.854;2023-06-14T02:24:26;6.38;;;4.28;;
65896;SDS011;52677;50.898;10.854;2023-06-14T02:26:26;6.72;;;4.60;;
65896;SDS011;52677;50.898;10.854;2023-06-14T02:28:28;6.00;;;4.45;;
65896;SDS011;52677;50.898;10.854;2023-06-14T02:30:29;6.45;;;4.32;;
65896;SDS011;52677;50.898;10.854;2023-06-14T02:32:29;9.40;;;4.60;;
65896;SDS011;52677;50.898;10.854;2023-06-14T02:34:29;8.07;;;4.72;;
65896;SDS011;52677;50.898;10.854;2023-06-14T02:36:30;6.35;;;4.50;;
65896;SDS011;52677;50.898;10.854;2023-06-14T02:38:30;6.32;;;4.88;;
65896;SDS011;52677;50.898;10.854;2023-06-14T02:40:30;7.53;;;4.80;;
65896;SDS011;52677;50.898;10.854;2023-06-14T02:42:31;7.00;;;4.75;;
65896;SDS011;52677;50.898;10.854;2023-06-14T02:44:31;7.43;;;4.60;;
65896;SDS011;52677;50.898;10.854;2023-06-14T02:46:32;9.80;;;4.60;;
65896;SDS011;52677;50.898;10.854;2023-06-14T02:48:32;5.53;;;4.38;;
65896;SDS011;52677;50.898;10.854;2023-06-14T02:50:33;7.43;;;4.60;;
65896;SDS011;52677;50.898;10.854;2023-06-14T02:52:33;4.88;;;4.35;;
65896;SDS011;52677;50.898;10.854;2023-06-14T02:54:34;4.68;;;4.18;;
65896;SDS011;52677;50.898;10.854;2023-06-14T02:56:34;7.30;;;4.40;;
65896;SDS011;52677;50.898;10.854;2023-06-14T02:58:36;5.82;;;4.25;;
65896;SDS011;52677;50.898;10.854;2023-06-14T03:00:36;5.00;;;4.18;;
65896;SDS011;52677;50.898;10.854;2023-06-14T03:02:38;5.72;;;4.05;;
65896;SDS011;52677;50.898;10.854;2023-06-14T03:04:38;9.45;;;4.45;;
65896;SDS011;52677;50.898;10.854;2023-06-14T03:06:39;7.53;;;4.75;;
65896;SDS011;52677;50.898;10.854;2023-06-14T03:08:40;7.78;;;5.47;;
65896;SDS011;52677;50.898;10.854;2023-06-14T03:10:41;7.57;;;4.63;;
65896;SDS011;52677;50.898;10.854;2023-06-14T03:12:43;7.72;;;4.53;;
65896;SDS011;52677;50.898;10.854;2023-06-14T03:14:43;6.22;;;4.95;;
65896;SDS011;52677;50.898;10.854;2023-06-14T03:16:45;7.18;;;4.38;;
65896;SDS011;52677;50.898;10.854;2023-06-14T03:18:46;6.18;;;4.90;;
65896;SDS011;52677;50.898;10.854;2023-06-14T03:20:46;6.55;;;5.05;;
65896;SDS011;52677;50.898;10.854;2023-06-14T03:22:46;7.28;;;5.00;;
65896;SDS011;52677;50.898;10.854;2023-06-14T03:24:47;12.90;;;5.28;;
65896;SDS011;52677;50.898;10.854;2023-06-14T03:26:48;7.75;;;5.10;;
65896;SDS011;52677;50.898;10.854;2023-06-14T03:28:48;7.82;;;4.65;;
65896;SDS011;52677;50.898;10.854;2023-06-14T03:30:49;5.97;;;4.38;;
65896;SDS011;52677;50.898;10.854;2023-06-14T03:32:50;8.02;;;5.10;;
65896;SDS011;52677;50.898;10.854;2023-06-14T03:34:55;7.53;;;5.13;;
65896;SDS011;52677;50.898;10.854;2023-06-14T03:36:55;9.02;;;4.70;;
65896;SDS011;52677;50.898;10.854;2023-06-14T03:38:56;9.93;;;4.80;;
65896;SDS011;52677;50.898;10.854;2023-06-14T03:40:56;7.22;;;4.65;;
65896;SDS011;52677;50.898;10.854;2023-06-14T03:42:56;4.85;;;4.35;;
65896;SDS011;52677;50.898;10.854;2023-06-14T03:44:57;6.85;;;4.22;;
65896;SDS011;52677;50.898;10.854;2023-06-14T03:46:57;6.82;;;4.72;;
65896;SDS011;52677;50.898;10.854;2023-06-14T03:48:57;5.82;;;4.57;;
65896;SDS011;52677;50.898;10.854;2023-06-14T03:50:58;7.95;;;4.60;;
65896;SDS011;52677;50.898;10.854;2023-06-14T03:52:58;7.40;;;4.75;;
65896;SDS011;52677;50.898;10.854;2023-06-14T03:54:58;7.07;;;4.80;;
65896;SDS011;52677;50.898;10.854;2023-06-14T03:57:00;5.77;;;4.73;;
65896;SDS011;52677;50.898;10.854;2023-06-14T03:59:00;6.53;;;4.55;;
65896;SDS011;52677;50.898;10.854;2023-06-14T04:01:00;7.60;;;4.70;;
65896;SDS011;52677;50.898;10.854;2023-06-14T04:03:01;8.90;;;4.72;;
65896;SDS011;52677;50.898;10.854;2023-06-14T04:05:03;5.22;;;4.40;;
65896;SDS011;52677;50.898;10.854;2023-06-14T04:07:04;5.97;;;4.18;;
65896;SDS011;52677;50.898;10.854;2023-06-14T04:09:04;6.75;;;4.78;;
65896;SDS011;52677;50.898;10.854;2023-06-14T04:11:04;6.22;;;4.60;;
65896;SDS011;52677;50.898;10.854;2023-06-14T04:13:05;6.47;;;4.85;;
65896;SDS011;52677;50.898;10.854;2023-06-14T04:15:07;7.45;;;4.68;;
65896;SDS011;52677;50.898;10.854;2023-06-14T04:17:08;8.65;;;4.40;;
65896;SDS011;52677;50.898;10.854;2023-06-14T04:19:09;6.13;;;4.72;;
65896;SDS011;52677;50.898;10.854;2023-06-14T04:21:09;4.97;;;4.45;;
65896;SDS011;52677;50.898;10.854;2023-06-14T04:23:13;6.70;;;4.20;;
65896;SDS011;52677;50.898;10.854;2023-06-14T04:25:15;5.05;;;4.22;;
65896;SDS011;52677;50.898;10.854;2023-06-14T04:27:15;5.03;;;4.35;;
65896;SDS011;52677;50.898;10.854;2023-06-14T04:29:25;7.70;;;4.80;;
65896;SDS011;52677;50.898;10.854;2023-06-14T04:31:28;5.77;;;4.73;;
65896;SDS011;52677;50.898;10.854;2023-06-14T04:33:29;6.50;;;4.72;;
65896;SDS011;52677;50.898;10.854;2023-06-14T04:35:29;7.57;;;4.70;;
65896;SDS011;52677;50.898;10.854;2023-06-14T04:37:32;7.40;;;4.32;;
65896;SDS011;52677;50.898;10.854;2023-06-14T04:39:33;5.82;;;4.60;;
65896;SDS011;52677;50.898;10.854;2023-06-14T04:41:33;5.68;;;4.40;;
65896;SDS011;52677;50.898;10.854;2023-06-14T04:43:34;5.78;;;4.80;;
65896;SDS011;52677;50.898;10.854;2023-06-14T04:45:38;4.97;;;4.25;;
65896;SDS011;52677;50.898;10.854;2023-06-14T04:47:39;7.43;;;4.47;;
65896;SDS011;52677;50.898;10.854;2023-06-14T04:49:40;5.93;;;4.25;;
65896;SDS011;52677;50.898;10.854;2023-06-14T04:51:44;5.60;;;4.85;;
65896;SDS011;52677;50.898;10.854;2023-06-14T04:53:45;6.07;;;4.90;;
65896;SDS011;52677;50.898;10.854;2023-06-14T04:55:46;6.65;;;4.53;;
65896;SDS011;52677;50.898;10.854;2023-06-14T04:57:47;9.13;;;4.68;;
65896;SDS011;52677;50.898;10.854;2023-06-14T04:59:47;7.32;;;4.85;;
65896;SDS011;52677;50.898;10.854;2023-06-14T05:01:51;6.65;;;4.40;;
65896;SDS011;52677;50.898;10.854;2023-06-14T05:03:52;5.97;;;4.45;;
65896;SDS011;52677;50.898;10.854;2023-06-14T05:05:53;5.38;;;4.25;;
65896;SDS011;52677;50.898;10.854;2023-06-14T05:07:53;7.68;;;4.70;;
65896;SDS011;52677;50.898;10.854;2023-06-14T05:09:53;4.88;;;4.38;;
65896;SDS011;52677;50.898;10.854;2023-06-14T05:11:54;4.35;;;3.95;;
65896;SDS011;52677;50.898;10.854;2023-06-14T05:13:54;6.70;;;4.40;;
65896;SDS011;52677;50.898;10.854;2023-06-14T05:15:55;4.65;;;3.53;;
65896;SDS011;52677;50.898;10.854;2023-06-14T05:17:55;4.88;;;4.07;;
65896;SDS011;52677;50.898;10.854;2023-06-14T05:19:56;6.55;;;4.57;;
65896;SDS011;52677;50.898;10.854;2023-06-14T05:21:56;10.98;;;4.60;;
65896;SDS011;52677;50.898;10.854;2023-06-14T05:23:57;6.75;;;4.20;;
65896;SDS011;52677;50.898;10.854;2023-06-14T05:25:57;5.80;;;4.78;;
65896;SDS011;52677;50.898;10.854;2023-06-14T05:27:57;6.82;;;4.22;;
65896;SDS011;52677;50.898;10.854;2023-06-14T05:29:58;5.65;;;4.57;;
65896;SDS011;52677;50.898;10.854;2023-06-14T05:31:59;5.53;;;4.82;;
65896;SDS011;52677;50.898;10.854;2023-06-14T05:33:59;5.30;;;4.50;;
65896;SDS011;52677;50.898;10.854;2023-06-14T05:36:00;6.32;;;4.65;;
65896;SDS011;52677;50.898;10.854;2023-06-14T05:38:01;6.10;;;4.45;;
65896;SDS011;52677;50.898;10.854;2023-06-14T05:40:02;7.78;;;4.10;;
65896;SDS011;52677;50.898;10.854;2023-06-14T05:42:07;6.90;;;5.05;;
65896;SDS011;52677;50.898;10.854;2023-06-14T05:44:07;6.80;;;4.40;;
65896;SDS011;52677;50.898;10.854;2023-06-14T05:46:08;8.40;;;4.80;;
65896;SDS011;52677;50.898;10.854;2023-06-14T05:48:09;8.75;;;4.65;;
65896;SDS011;52677;50.898;10.854;2023-06-14T05:50:09;5.20;;;4.50;;
65896;SDS011;52677;50.898;10.854;2023-06-14T05:52:10;7.82;;;4.53;;
65896;SDS011;52677;50.898;10.854;2023-06-14T05:54:11;5.60;;;4.32;;
65896;SDS011;52677;50.898;10.854;2023-06-14T05:56:12;7.13;;;4.75;;
65896;SDS011;52677;50.898;10.854;2023-06-14T05:58:12;5.10;;;4.43;;
65896;SDS011;52677;50.898;10.854;2023-06-14T06:00:14;5.03;;;3.92;;
65896;SDS011;52677;50.898;10.854;2023-06-14T06:02:15;5.93;;;4.45;;
65896;SDS011;52677;50.898;10.854;2023-06-14T06:04:16;6.00;;;4.40;;
65896;SDS011;52677;50.898;10.854;2023-06-14T06:06:16;5.35;;;4.53;;
65896;SDS011;52677;50.898;10.854;2023-06-14T06:08:17;4.43;;;3.70;;
65896;SDS011;52677;50.898;10.854;2023-06-14T06:10:17;7.10;;;5.07;;
65896;SDS011;52677;50.898;10.854;2023-06-14T06:12:17;6.32;;;5.00;;
65896;SDS011;52677;50.898;10.854;2023-06-14T06:14:18;6.38;;;4.68;;
65896;SDS011;52677;50.898;10.854;2023-06-14T06:16:18;5.03;;;4.53;;
65896;SDS011;52677;50.898;10.854;2023-06-14T06:18:18;10.48;;;4.88;;
65896;SDS011;52677;50.898;10.854;2023-06-14T06:20:19;6.18;;;4.25;;
65896;SDS011;52677;50.898;10.854;2023-06-14T06:22:19;6.68;;;4.32;;
65896;SDS011;52677;50.898;10.854;2023-06-14T06:24:19;5.93;;;4.93;;
65896;SDS011;52677;50.898;10.854;2023-06-14T06:26:21;5.18;;;4.47;;
65896;SDS011;52677;50.898;10.854;2023-06-14T06:28:22;9.07;;;4.93;;
65896;SDS011;52677;50.898;10.854;2023-06-14T06:30:22;5.10;;;4.60;;
65896;SDS011;52677;50.898;10.854;2023-06-14T06:32:23;8.70;;;4.90;;
65896;SDS011;52677;50.898;10.854;2023-06-14T06:34:23;6.18;;;4.78;;
65896;SDS011;52677;50.898;10.854;2023-06-14T06:36:23;7.65;;;4.82;;
65896;SDS011;52677;50.898;10.854;2023-06-14T06:38:24;5.55;;;4.65;;
65896;SDS011;52677;50.898;10.854;2023-06-14T06:40:25;4.97;;;4.18;;
65896;SDS011;52677;50.898;10.854;2023-06-14T06:42:25;6.18;;;4.93;;
65896;SDS011;52677;50.898;10.854;2023-06-14T06:44:25;8.05;;;4.43;;
65896;SDS011;52677;50.898;10.854;2023-06-14T06:46:26;7.88;;;4.75;;
65896;SDS011;52677;50.898;10.854;2023-06-14T06:48:26;7.15;;;4.90;;
65896;SDS011;52677;50.898;10.854;2023-06-14T06:50:26;7.20;;;4.82;;
65896;SDS011;52677;50.898;10.854;2023-06-14T06:52:27;7.93;;;5.55;;
65896;SDS011;52677;50.898;10.854;2023-06-14T06:54:27;6.07;;;4.88;;
65896;SDS011;52677;50.898;10.854;2023-06-14T06:56:27;6.22;;;5.07;;
65896;SDS011;52677;50.898;10.854;2023-06-14T06:58:28;8.90;;;5.57;;
65896;SDS011;52677;50.898;10.854;2023-06-14T07:00:28;8.98;;;4.97;;
65896;SDS011;52677;50.898;10.854;2023-06-14T07:02:28;5.82;;;5.25;;
65896;SDS011;52677;50.898;10.854;2023-06-14T07:04:30;11.05;;;5.57;;
65896;SDS011;52677;50.898;10.854;2023-06-14T07:06:31;8.50;;;5.07;;
65896;SDS011;52677;50.898;10.854;2023-06-14T07:08:31;6.63;;;4.97;;
65896;SDS011;52677;50.898;10.854;2023-06-14T07:10:31;8.82;;;5.50;;
65896;SDS011;52677;50.898;10.854;2023-06-14T07:12:32;6.75;;;5.28;;
65896;SDS011;52677;50.898;10.854;2023-06-14T07:14:33;5.95;;;5.35;;
65896;SDS011;52677;50.898;10.854;2023-06-14T07:16:34;6.85;;;4.97;;
65896;SDS011;52677;50.898;10.854;2023-06-14T07:18:34;5.82;;;5.10;;
65896;SDS011;52677;50.898;10.854;2023-06-14T07:20:35;6.35;;;5.28;;
65896;SDS011;52677;50.898;10.854;2023-06-14T07:22:39;5.60;;;4.72;;
65896;SDS011;52677;50.898;10.854;2023-06-14T07:24:43;6.32;;;5.30;;
65896;SDS011;52677;50.898;10.854;2023-06-14T07:26:43;6.50;;;5.10;;
65896;SDS011;52677;50.898;10.854;2023-06-14T07:28:43;6.20;;;5.28;;
65896;SDS011;52677;50.898;10.854;2023-06-14T07:30:46;5.75;;;5.13;;
65896;SDS011;52677;50.898;10.854;2023-06-14T07:32:48;5.93;;;5.10;;
65896;SDS011;52677;50.898;10.854;2023-06-14T07:34:49;6.85;;;4.72;;
65896;SDS011;52677;50.898;10.854;2023-06-14T07:36:49;6.28;;;5.07;;
65896;SDS011;52677;50.898;10.854;2023-06-14T07:38:50;6.13;;;5.13;;
65896;SDS011;52677;50.898;10.854;2023-06-14T07:40:50;6.90;;;5.03;;
65896;SDS011;52677;50.898;10.854;2023-06-14T07:42:50;5.50;;;4.93;;
65896;SDS011;52677;50.898;10.854;2023-06-14T07:44:51;7.53;;;4.97;;
65896;SDS011;52677;50.898;10.854;2023-06-14T07:46:52;9.98;;;5.55;;
65896;SDS011;52677;50.898;10.854;2023-06-14T07:48:53;7.28;;;5.45;;
65896;SDS011;52677;50.898;10.854;2023-06-14T07:50:53;5.28;;;4.72;;
65896;SDS011;52677;50.898;10.854;2023-06-14T07:52:54;6.72;;;5.32;;
65896;SDS011;52677;50.898;10.854;2023-06-14T07:54:54;6.60;;;5.03;;
65896;SDS011;52677;50.898;10.854;2023-06-14T07:56:55;7.13;;;5.57;;
65896;SDS011;52677;50.898;10.854;2023-06-14T07:58:56;5.95;;;5.38;;
65896;SDS011;52677;50.898;10.854;2023-06-14T08:00:56;6.90;;;4.43;;
65896;SDS011;52677;50.898;10.854;2023-06-14T08:02:57;6.65;;;5.40;;
65896;SDS011;52677;50.898;10.854;2023-06-14T08:04:59;5.95;;;5.20;;
65896;SDS011;52677;50.898;10.854;2023-06-14T08:06:59;6.03;;;4.90;;
65896;SDS011;52677;50.898;10.854;2023-06-14T08:09:00;6.38;;;4.80;;
65896;SDS011;52677;50.898;10.854;2023-06-14T08:11:01;6.35;;;5.22;;
65896;SDS011;52677;50.898;10.854;2023-06-14T08:13:01;7.35;;;5.90;;
65896;SDS011;52677;50.898;10.854;2023-06-14T08:15:02;6.22;;;5.05;;
65896;SDS011;52677;50.898;10.854;2023-06-14T08:17:02;8.20;;;5.22;;
65896;SDS011;52677;50.898;10.854;2023-06-14T08:19:03;5.85;;;4.88;;
65896;SDS011;52677;50.898;10.854;2023-06-14T08:21:03;6.88;;;5.10;;
65896;SDS011;52677;50.898;10.854;2023-06-14T08:23:04;7.15;;;5.95;;
65896;SDS011;52677;50.898;10.854;2023-06-14T08:25:04;5.40;;;4.88;;
65896;SDS011;52677;50.898;10.854;2023-06-14T08:27:05;5.78;;;5.05;;
65896;SDS011;52677;50.898;10.854;2023-06-14T08:29:06;6.28;;;5.20;;
65896;SDS011;52677;50.898;10.854;2023-06-14T08:31:08;6.22;;;5.55;;
65896;SDS011;52677;50.898;10.854;2023-06-14T08:33:08;5.68;;;5.10;;
65896;SDS011;52677;50.898;10.854;2023-06-14T08:35:09;6.35;;;4.72;;
65896;SDS011;52677;50.898;10.854;2023-06-14T08:37:09;4.85;;;4.35;;
65896;SDS011;52677;50.898;10.854;2023-06-14T08:39:09;9.65;;;5.15;;
65896;SDS011;52677;50.898;10.854;2023-06-14T08:41:11;5.43;;;4.45;;
65896;SDS011;52677;50.898;10.854;2023-06-14T08:43:13;5.95;;;4.93;;
65896;SDS011;52677;50.898;10.854;2023-06-14T08:45:14;7.43;;;4.28;;
65896;SDS011;52677;50.898;10.854;2023-06-14T08:47:14;9.32;;;4.72;;
65896;SDS011;52677;50.898;10.854;2023-06-14T08:49:17;7.95;;;5.07;;
65896;SDS011;52677;50.898;10.854;2023-06-14T08:51:19;10.68;;;5.28;;
65896;SDS011;52677;50.898;10.854;2023-06-14T08:53:21;5.30;;;4.40;;
65896;SDS011;52677;50.898;10.854;2023-06-14T08:55:23;5.10;;;4.60;;
65896;SDS011;52677;50.898;10.854;2023-06-14T08:57:27;7.85;;;5.00;;
65896;SDS011;52677;50.898;10.854;2023-06-14T08:59:30;5.90;;;4.60;;
65896;SDS011;52677;50.898;10.854;2023-06-14T09:01:34;5.95;;;5.10;;
65896;SDS011;52677;50.898;10.854;2023-06-14T09:03:35;8.13;;;4.60;;
65896;SDS011;52677;50.898;10.854;2023-06-14T09:05:35;5.78;;;4.28;;
65896;SDS011;52677;50.898;10.854;2023-06-14T09:07:37;7.85;;;4.68;;
65896;SDS011;52677;50.898;10.854;2023-06-14T09:09:39;5.10;;;4.60;;
65896;SDS011;52677;50.898;10.854;2023-06-14T09:11:42;5.75;;;4.75;;
65896;SDS011;52677;50.898;10.854;2023-06-14T09:13:43;5.25;;;4.32;;
65896;SDS011;52677;50.898;10.854;2023-06-14T09:15:44;4.80;;;4.30;;
65896;SDS011;52677;50.898;10.854;2023-06-14T09:17:44;7.43;;;4.32;;
65896;SDS011;52677;50.898;10.854;2023-06-14T09:19:45;5.07;;;3.97;;
65896;SDS011;52677;50.898;10.854;2023-06-14T09:21:46;6.32;;;4.15;;
65896;SDS011;52677;50.898;10.854;2023-06-14T09:23:47;4.85;;;3.92;;
65896;SDS011;52677;50.898;10.854;2023-06-14T09:25:48;5.05;;;4.15;;
65896;SDS011;52677;50.898;10.854;2023-06-14T09:27:48;8.00;;;4.15;;
65896;SDS011;52677;50.898;10.854;2023-06-14T09:29:48;6.25;;;4.18;;
65896;SDS011;52677;50.898;10.854;2023-06-14T09:31:49;4.28;;;3.88;;
65896;SDS011;52677;50.898;10.854;2023-06-14T09:33:50;6.28;;;4.13;;
65896;SDS011;52677;50.898;10.854;2023-06-14T09:35:51;6.10;;;4.03;;
65896;SDS011;52677;50.898;10.854;2023-06-14T09:39:55;6.00;;;4.50;;
65896;SDS011;52677;50.898;10.854;2023-06-14T09:41:56;5.18;;;4.38;;
65896;SDS011;52677;50.898;10.854;2023-06-14T09:43:57;7.05;;;4.10;;
65896;SDS011;52677;50.898;10.854;2023-06-14T09:46:00;5.95;;;4.13;;
65896;SDS011;52677;50.898;10.854;2023-06-14T09:48:01;8.13;;;4.03;;
65896;SDS011;52677;50.898;10.854;2023-06-14T09:50:02;5.38;;;4.07;;
65896;SDS011;52677;50.898;10.854;2023-06-14T09:52:03;7.25;;;4.78;;
65896;SDS011;52677;50.898;10.854;2023-06-14T09:54:04;6.32;;;4.85;;
65896;SDS011;52677;50.898;10.854;2023-06-14T09:56:05;5.70;;;4.85;;
65896;SDS011;52677;50.898;10.854;2023-06-14T09:58:06;5.15;;;4.35;;
65896;SDS011;52677;50.898;10.854;2023-06-14T10:00:08;8.60;;;4.30;;
65896;SDS011;52677;50.898;10.854;2023-06-14T10:02:25;10.57;;;4.03;;
65896;SDS011;52677;50.898;10.854;2023-06-14T10:04:29;11.50;;;4.35;;
65896;SDS011;52677;50.898;10.854;2023-06-14T10:06:31;7.07;;;5.00;;
65896;SDS011;52677;50.898;10.854;2023-06-14T10:08:36;7.20;;;4.03;;
65896;SDS011;52677;50.898;10.854;2023-06-14T10:10:38;8.55;;;4.82;;
65896;SDS011;52677;50.898;10.854;2023-06-14T10:12:40;5.25;;;4.43;;
65896;SDS011;52677;50.898;10.854;2023-06-14T10:14:40;7.47;;;4.60;;
65896;SDS011;52677;50.898;10.854;2023-06-14T10:21:38;5.38;;;4.80;;
65896;SDS011;52677;50.898;10.854;2023-06-14T10:23:44;4.95;;;4.40;;
65896;SDS011;52677;50.898;10.854;2023-06-14T10:25:49;5.18;;;4.35;;
65896;SDS011;52677;50.898;10.854;2023-06-14T10:27:50;5.57;;;5.03;;
65896;SDS011;52677;50.898;10.854;2023-06-14T10:31:55;8.73;;;4.20;;
65896;SDS011;52677;50.898;10.854;2023-06-14T10:33:56;4.70;;;3.75;;
65896;SDS011;52677;50.898;10.854;2023-06-14T10:36:09;14.65;;;4.88;;
65896;SDS011;52677;50.898;10.854;2023-06-14T10:38:13;6.38;;;4.30;;
65896;SDS011;52677;50.898;10.854;2023-06-14T10:40:29;4.72;;;4.00;;
65896;SDS011;52677;50.898;10.854;2023-06-14T10:42:31;7.40;;;4.80;;
65896;SDS011;52677;50.898;10.854;2023-06-14T10:44:33;7.07;;;3.58;;
65896;SDS011;52677;50.898;10.854;2023-06-14T10:46:38;4.00;;;3.60;;
65896;SDS011;52677;50.898;10.854;2023-06-14T10:48:45;5.55;;;4.30;;
65896;SDS011;52677;50.898;10.854;2023-06-14T10:50:47;6.10;;;3.92;;
65896;SDS011;52677;50.898;10.854;2023-06-14T10:52:49;5.00;;;3.78;;
65896;SDS011;52677;50.898;10.854;2023-06-14T10:57:01;3.88;;;3.30;;
65896;SDS011;52677;50.898;10.854;2023-06-14T10:59:01;5.95;;;3.95;;
65896;SDS011;52677;50.898;10.854;2023-06-14T11:01:02;4.40;;;4.00;;
65896;SDS011;52677;50.898;10.854;2023-06-14T11:03:20;4.43;;;3.88;;
65896;SDS011;52677;50.898;10.854;2023-06-14T11:05:50;4.97;;;3.97;;
65896;SDS011;52677;50.898;10.854;2023-06-14T11:10:41;5.88;;;4.05;;
65896;SDS011;52677;50.898;10.854;2023-06-14T11:12:44;4.88;;;3.53;;
65896;SDS011;52677;50.898;10.854;2023-06-14T11:14:48;4.40;;;3.60;;
65896;SDS011;52677;50.898;10.854;2023-06-14T11:16:49;4.20;;;3.75;;
65896;SDS011;52677;50.898;10.854;2023-06-14T11:18:50;4.57;;;3.88;;
65896;SDS011;52677;50.898;10.854;2023-06-14T11:20:50;6.55;;;3.45;;
65896;SDS011;52677;50.898;10.854;2023-06-14T11:22:51;5.38;;;4.00;;
65896;SDS011;52677;50.898;10.854;2023-06-14T11:24:52;4.82;;;3.78;;
65896;SDS011;52677;50.898;10.854;2023-06-14T11:26:52;4.60;;;4.00;;
65896;SDS011;52677;50.898;10.854;2023-06-14T11:28:54;9.00;;;4.20;;
65896;SDS011;52677;50.898;10.854;2023-06-14T11:31:00;4.13;;;3.65;;
65896;SDS011;52677;50.898;10.854;2023-06-14T11:33:01;5.40;;;3.97;;
65896;SDS011;52677;50.898;10.854;2023-06-14T11:35:02;4.40;;;3.28;;
65896;SDS011;52677;50.898;10.854;2023-06-14T11:37:04;6.88;;;3.60;;
65896;SDS011;52677;50.898;10.854;2023-06-14T11:39:06;4.20;;;3.65;;
65896;SDS011;52677;50.898;10.854;2023-06-14T11:41:07;4.22;;;3.25;;
65896;SDS011;52677;50.898;10.854;2023-06-14T11:43:07;5.00;;;3.25;;
65896;SDS011;52677;50.898;10.854;2023-06-14T11:45:08;5.28;;;3.75;;
65896;SDS011;52677;50.898;10.854;2023-06-14T11:47:09;7.05;;;3.50;;
65896;SDS011;52677;50.898;10.854;2023-06-14T11:49:10;4.30;;;3.25;;
65896;SDS011;52677;50.898;10.854;2023-06-14T11:51:10;4.22;;;3.03;;
65896;SDS011;52677;50.898;10.854;2023-06-14T11:53:11;4.60;;;3.30;;
65896;SDS011;52677;50.898;10.854;2023-06-14T11:55:12;5.78;;;3.20;;
65896;SDS011;52677;50.898;10.854;2023-06-14T11:57:12;6.07;;;3.17;;
65896;SDS011;52677;50.898;10.854;2023-06-14T11:59:13;6.60;;;3.50;;
65896;SDS011;52677;50.898;10.854;2023-06-14T12:01:16;3.53;;;3.22;;
65896;SDS011;52677;50.898;10.854;2023-06-14T12:03:17;3.70;;;3.30;;
65896;SDS011;52677;50.898;10.854;2023-06-14T12:05:24;3.55;;;3.25;;
65896;SDS011;52677;50.898;10.854;2023-06-14T12:07:26;3.70;;;3.28;;
65896;SDS011;52677;50.898;10.854;2023-06-14T12:09:26;7.25;;;3.63;;
65896;SDS011;52677;50.898;10.854;2023-06-14T12:11:34;3.95;;;3.13;;
65896;SDS011;52677;50.898;10.854;2023-06-14T12:13:37;5.38;;;2.83;;
65896;SDS011;52677;50.898;10.854;2023-06-14T12:15:38;4.80;;;3.30;;